Time;durP1;ratioP1;P1;durP2;ratioP2;P2;SDS_P1;SDS_P2;PMS_P1;PMS_P2;Temp;Humidity;BMP_temperature;BMP_pressure;BME280_temperature;BME280_humidity;BME280_pressure;Samples;Min_cycle;Max_cycle;Signal;HPM_P1;HPM_P2
2023/03/24 00:00:13;;;;;;;7.43;3.57;;;12.30;99.90;;;;;;5061852;28;20205;-76
2023/03/24 00:02:41;;;;;;;8.73;4.63;;;12.30;99.90;;;;;;5076642;28;20282;-76
2023/03/24 00:05:10;;;;;;;6.97;4.07;;;12.30;99.90;;;;;;5084382;28;20675;-75
2023/03/24 00:07:38;;;;;;;6.80;3.80;;;12.30;99.90;;;;;;5083306;28;20257;-77
2023/03/24 00:10:08;;;;;;;8.90;4.23;;;12.30;99.90;;;;;;5084617;28;20203;-76
2023/03/24 00:12:37;;;;;;;8.87;4.10;;;12.40;99.90;;;;;;5083594;28;20572;-77
2023/03/24 00:15:10;;;;;;;7.53;3.90;;;12.40;99.90;;;;;;5063932;28;20214;-76
2023/03/24 00:17:38;;;;;;;7.97;4.03;;;12.40;99.90;;;;;;5081168;28;20308;-78
2023/03/24 00:20:18;;;;;;;8.73;4.03;;;12.40;99.90;;;;;;5079860;28;20220;-77
2023/03/24 00:22:49;;;;;;;6.97;4.43;;;12.40;99.90;;;;;;5083384;28;20208;-75
2023/03/24 00:25:18;;;;;;;8.53;3.93;;;12.40;99.90;;;;;;5090069;28;20228;-76
2023/03/24 00:27:47;;;;;;;7.20;3.93;;;12.40;99.90;;;;;;5068319;28;20200;-76
2023/03/24 00:30:16;;;;;;;8.03;3.57;;;12.50;99.90;;;;;;5083644;28;20232;-75
2023/03/24 00:32:43;;;;;;;5.30;4.00;;;12.40;99.90;;;;;;5089191;28;20215;-76
2023/03/24 00:35:13;;;;;;;8.13;4.27;;;12.40;99.90;;;;;;5085515;28;20250;-77
2023/03/24 00:37:41;;;;;;;9.37;4.87;;;12.40;99.90;;;;;;5080991;28;20294;-76
2023/03/24 00:40:15;;;;;;;8.47;4.70;;;12.40;99.90;;;;;;5089466;28;20228;-76
2023/03/24 00:42:44;;;;;;;8.53;3.90;;;12.40;99.90;;;;;;5077732;28;20287;-77
2023/03/24 00:45:18;;;;;;;8.30;4.43;;;12.30;99.90;;;;;;5085855;28;20277;-76
2023/03/24 00:47:48;;;;;;;11.30;4.93;;;12.30;99.90;;;;;;5089869;28;20242;-75
2023/03/24 00:50:17;;;;;;;11.47;4.67;;;12.30;99.90;;;;;;5085848;28;20291;-76
2023/03/24 00:52:46;;;;;;;9.07;4.40;;;12.30;99.90;;;;;;5086143;28;20203;-76
2023/03/24 00:55:15;;;;;;;6.43;4.40;;;12.30;99.90;;;;;;5081013;28;20286;-77
2023/03/24 00:57:49;;;;;;;8.67;4.80;;;12.30;99.90;;;;;;5090311;28;20204;-77
2023/03/24 01:00:22;;;;;;;9.77;4.70;;;12.30;99.90;;;;;;5082169;28;20303;-76
2023/03/24 01:02:53;;;;;;;9.07;4.30;;;12.40;99.90;;;;;;5085315;28;20314;-76
2023/03/24 01:05:27;;;;;;;9.57;4.63;;;12.40;99.90;;;;;;5088160;28;20227;-76
2023/03/24 01:08:02;;;;;;;7.77;4.63;;;12.40;99.90;;;;;;5084772;28;20231;-76
2023/03/24 01:10:32;;;;;;;6.70;3.90;;;12.30;99.90;;;;;;5084723;28;20208;-76
2023/03/24 01:12:59;;;;;;;7.93;4.77;;;12.40;99.90;;;;;;5081962;28;20203;-76
2023/03/24 01:15:30;;;;;;;9.43;3.90;;;12.40;99.90;;;;;;5086405;28;20290;-77
2023/03/24 01:17:56;;;;;;;9.33;4.80;;;12.40;99.90;;;;;;5084379;28;20331;-74
2023/03/24 01:20:24;;;;;;;7.60;4.23;;;12.40;99.90;;;;;;5081457;28;20261;-75
2023/03/24 01:22:51;;;;;;;7.43;4.53;;;12.40;99.90;;;;;;5084268;28;20291;-75
2023/03/24 01:25:22;;;;;;;9.23;4.80;;;12.40;99.90;;;;;;5090969;28;20262;-76
2023/03/24 01:27:51;;;;;;;7.17;4.60;;;12.40;99.90;;;;;;5087598;28;20218;-75
2023/03/24 01:30:21;;;;;;;6.63;4.43;;;12.40;99.90;;;;;;5083958;28;20236;-74
2023/03/24 01:32:48;;;;;;;9.23;4.57;;;12.40;99.90;;;;;;5082437;28;20255;-75
2023/03/24 01:35:15;;;;;;;7.13;4.33;;;12.40;99.90;;;;;;5071897;28;20309;-76
2023/03/24 01:37:42;;;;;;;5.97;4.37;;;12.40;99.90;;;;;;5081243;28;20299;-75
2023/03/24 01:40:18;;;;;;;7.83;5.13;;;12.40;99.90;;;;;;5084081;28;20600;-75
2023/03/24 01:42:46;;;;;;;7.87;4.53;;;12.40;99.90;;;;;;5088982;28;20291;-75
2023/03/24 01:45:38;;;;;;;9.17;4.27;;;12.50;99.90;;;;;;5084633;28;20695;-76
2023/03/24 01:48:14;;;;;;;8.13;4.83;;;12.40;99.90;;;;;;5081392;28;20223;-75
2023/03/24 01:50:46;;;;;;;7.00;4.03;;;12.40;99.90;;;;;;5081679;28;20334;-77
2023/03/24 01:53:14;;;;;;;7.30;4.60;;;12.40;99.90;;;;;;5089009;28;20326;-75
2023/03/24 01:55:44;;;;;;;7.53;4.50;;;12.50;99.90;;;;;;5086980;28;20258;-75
2023/03/24 01:58:11;;;;;;;6.47;4.67;;;12.40;99.90;;;;;;5081656;28;20200;-76
2023/03/24 02:00:38;;;;;;;8.23;4.90;;;12.60;99.90;;;;;;5085633;28;20210;-76
2023/03/24 02:03:10;;;;;;;9.00;4.47;;;12.50;99.90;;;;;;5073867;28;20297;-76
2023/03/24 02:05:38;;;;;;;7.20;4.23;;;12.50;99.90;;;;;;5086748;28;20228;-74
2023/03/24 02:08:17;;;;;;;6.63;4.20;;;12.50;99.90;;;;;;5066578;28;20272;-76
2023/03/24 02:10:44;;;;;;;8.10;4.40;;;12.50;99.90;;;;;;5084896;28;20234;-76
2023/03/24 02:13:11;;;;;;;7.10;4.93;;;12.50;99.90;;;;;;5084192;28;20646;-76
2023/03/24 02:16:04;;;;;;;6.73;4.57;;;12.50;99.90;;;;;;5087169;28;20233;-76
2023/03/24 02:18:56;;;;;;;7.10;4.47;;;12.50;99.90;;;;;;5065677;28;20217;-75
2023/03/24 02:22:03;;;;;;;6.93;4.40;;;12.50;99.90;;;;;;5082155;28;20200;-75
2023/03/24 02:25:00;;;;;;;7.23;4.30;;;12.50;99.90;;;;;;5072495;28;20208;-76
2023/03/24 02:27:52;;;;;;;8.10;5.00;;;12.50;99.90;;;;;;5085955;28;20547;-76
2023/03/24 02:30:56;;;;;;;7.33;4.50;;;12.50;99.90;;;;;;5081744;28;20235;-77
2023/03/24 02:33:41;;;;;;;5.57;4.33;;;12.50;99.90;;;;;;5079214;28;20314;-76
2023/03/24 02:36:32;;;;;;;5.10;3.97;;;12.50;99.90;;;;;;5086761;28;20204;-75
2023/03/24 02:39:38;;;;;;;7.23;3.93;;;12.50;99.90;;;;;;5071592;28;20883;-76
2023/03/24 02:42:22;;;;;;;7.90;4.63;;;12.50;99.90;;;;;;5067867;28;20296;-76
2023/03/24 02:45:18;;;;;;;6.27;4.17;;;12.50;99.90;;;;;;5081652;28;20215;-74
2023/03/24 02:48:15;;;;;;;5.00;4.00;;;12.50;99.90;;;;;;5082450;28;20370;-75
2023/03/24 02:51:18;;;;;;;6.80;4.60;;;12.60;99.90;;;;;;5079037;28;20227;-75
2023/03/24 02:54:10;;;;;;;5.43;3.80;;;12.60;99.90;;;;;;5004957;28;20244;-75
2023/03/24 02:56:42;;;;;;;5.40;4.07;;;12.60;99.90;;;;;;5085122;28;20200;-76
2023/03/24 02:59:25;;;;;;;8.37;4.47;;;12.60;99.90;;;;;;5078256;28;20229;-74
2023/03/24 03:02:02;;;;;;;7.80;4.37;;;12.70;99.90;;;;;;5061556;28;20200;-76
2023/03/24 03:04:38;;;;;;;5.43;4.40;;;12.60;99.90;;;;;;5066053;28;20217;-76
2023/03/24 03:07:11;;;;;;;5.47;4.10;;;12.70;99.90;;;;;;5079567;28;20711;-77
2023/03/24 03:09:42;;;;;;;5.60;4.13;;;12.60;99.90;;;;;;5087245;28;20228;-75
2023/03/24 03:12:11;;;;;;;6.10;4.10;;;12.60;99.90;;;;;;5086813;28;20235;-76
2023/03/24 03:14:44;;;;;;;5.30;3.20;;;12.60;99.90;;;;;;5079072;28;20250;-75
2023/03/24 03:17:19;;;;;;;5.70;3.10;;;12.60;99.90;;;;;;5081949;28;20797;-75
2023/03/24 03:19:52;;;;;;;3.80;3.00;;;12.60;99.90;;;;;;5082362;28;20199;-75
2023/03/24 03:22:23;;;;;;;4.00;2.97;;;12.60;99.90;;;;;;5085787;28;20227;-75
2023/03/24 03:24:53;;;;;;;4.37;3.10;;;12.50;99.90;;;;;;5083558;28;20215;-75
2023/03/24 03:27:37;;;;;;;5.40;3.10;;;12.50;99.90;;;;;;5086166;28;20743;-74
2023/03/24 03:30:28;;;;;;;4.33;3.17;;;12.40;99.90;;;;;;5082569;28;20242;-75
2023/03/24 03:33:01;;;;;;;5.17;3.20;;;12.40;99.90;;;;;;5080920;28;20291;-74
2023/03/24 03:35:35;;;;;;;5.80;3.53;;;12.40;99.90;;;;;;5085006;28;20204;-75
2023/03/24 03:38:14;;;;;;;6.87;3.60;;;12.40;99.90;;;;;;5080142;28;20252;-74
2023/03/24 03:40:54;;;;;;;4.07;2.83;;;12.30;99.90;;;;;;5086998;28;20200;-76
2023/03/24 03:43:22;;;;;;;5.63;3.10;;;12.20;99.90;;;;;;5082132;28;20200;-74
2023/03/24 03:45:49;;;;;;;3.17;2.13;;;12.20;99.90;;;;;;5076022;28;20307;-74
2023/03/24 03:48:16;;;;;;;3.83;2.33;;;12.20;99.90;;;;;;5088364;28;20219;-75
2023/03/24 03:50:44;;;;;;;5.17;2.10;;;12.10;99.90;;;;;;5083444;28;20228;-75
2023/03/24 03:53:15;;;;;;;5.80;2.00;;;12.10;99.90;;;;;;5079570;28;20294;-75
2023/03/24 03:55:44;;;;;;;5.87;2.00;;;12.00;99.90;;;;;;5081810;28;20371;-76
2023/03/24 03:58:11;;;;;;;3.23;1.90;;;11.90;99.90;;;;;;5081652;28;20632;-74
2023/03/24 04:00:39;;;;;;;7.63;2.47;;;11.90;99.90;;;;;;5082441;28;20200;-75
2023/03/24 04:03:36;;;;;;;7.83;1.80;;;11.80;99.90;;;;;;5083703;28;20232;-75
2023/03/24 04:06:43;;;;;;;6.77;2.07;;;11.80;99.90;;;;;;5079761;28;20259;-75
2023/03/24 04:09:35;;;;;;;6.87;1.73;;;11.70;99.90;;;;;;5077889;28;20212;-74
2023/03/24 04:12:24;;;;;;;5.13;2.00;;;11.60;99.90;;;;;;5082113;28;20246;-75
2023/03/24 04:15:10;;;;;;;7.90;1.90;;;11.50;99.90;;;;;;5074883;28;20330;-74
2023/03/24 04:17:49;;;;;;;9.03;2.27;;;11.40;99.90;;;;;;5064932;28;20684;-76
2023/03/24 04:20:47;;;;;;;4.80;2.00;;;11.40;99.90;;;;;;5086495;28;20200;-75
2023/03/24 04:23:31;;;;;;;8.60;1.93;;;11.20;99.90;;;;;;5073552;28;20624;-73
2023/03/24 04:26:05;;;;;;;11.77;2.30;;;11.10;99.90;;;;;;5081464;28;20314;-75
2023/03/24 04:28:57;;;;;;;4.27;1.50;;;11.00;99.90;;;;;;5080948;28;20204;-74
2023/03/24 04:31:52;;;;;;;8.33;2.43;;;11.00;99.90;;;;;;5080337;28;20266;-73
2023/03/24 04:34:45;;;;;;;3.17;1.70;;;10.90;99.90;;;;;;5081163;28;20558;-74
2023/03/24 04:37:16;;;;;;;6.50;2.10;;;11.00;99.90;;;;;;5076098;28;20601;-74
2023/03/24 04:39:46;;;;;;;5.30;2.10;;;10.90;99.90;;;;;;5079675;28;20256;-73
2023/03/24 04:42:33;;;;;;;7.67;2.50;;;10.90;99.90;;;;;;5063881;28;20291;-73
2023/03/24 04:45:01;;;;;;;12.23;2.97;;;10.90;99.90;;;;;;5077941;28;20250;-74
2023/03/24 04:47:32;;;;;;;5.73;2.50;;;10.90;99.90;;;;;;5081258;28;20238;-74
2023/03/24 04:50:01;;;;;;;7.13;2.67;;;10.90;99.90;;;;;;5079161;28;20663;-74
2023/03/24 04:52:28;;;;;;;5.57;2.47;;;11.00;99.90;;;;;;5085520;28;20287;-73
2023/03/24 04:54:55;;;;;;;7.73;2.97;;;11.00;99.90;;;;;;5078894;28;20287;-73
2023/03/24 04:57:22;;;;;;;12.83;3.17;;;11.00;99.90;;;;;;5078339;28;20251;-73
2023/03/24 04:59:48;;;;;;;6.90;2.93;;;11.00;99.90;;;;;;5081972;28;20631;-73
2023/03/24 05:02:15;;;;;;;8.67;2.80;;;11.00;99.90;;;;;;5081965;28;20718;-73
2023/03/24 05:04:42;;;;;;;9.60;3.00;;;11.00;99.90;;;;;;5081611;28;20196;-73
2023/03/24 05:07:10;;;;;;;9.80;3.27;;;11.10;99.90;;;;;;5063539;28;20235;-73
2023/03/24 05:09:37;;;;;;;11.53;4.60;;;11.10;99.90;;;;;;5088611;28;20243;-74
2023/03/24 05:12:03;;;;;;;11.27;3.60;;;11.10;99.90;;;;;;5083098;28;20713;-74
2023/03/24 05:14:30;;;;;;;9.67;3.73;;;11.10;99.90;;;;;;5065166;28;20230;-74
2023/03/24 05:16:57;;;;;;;13.20;3.83;;;11.00;99.90;;;;;;5081599;28;20243;-74
2023/03/24 05:19:24;;;;;;;13.27;3.53;;;11.00;99.90;;;;;;5070299;28;20298;-73
2023/03/24 05:21:50;;;;;;;14.33;4.60;;;10.90;99.90;;;;;;5083022;28;20655;-73
2023/03/24 05:24:17;;;;;;;9.23;4.20;;;10.90;99.90;;;;;;5085569;28;20207;-73
2023/03/24 05:26:44;;;;;;;13.17;4.57;;;10.90;99.90;;;;;;5089316;28;20711;-73
2023/03/24 05:29:11;;;;;;;13.90;4.33;;;10.90;99.90;;;;;;5085401;28;20204;-73
2023/03/24 05:31:37;;;;;;;17.23;4.63;;;10.90;99.90;;;;;;5083244;28;20214;-74
2023/03/24 05:34:04;;;;;;;10.87;4.30;;;10.90;99.90;;;;;;5080541;28;20330;-74
2023/03/24 05:36:31;;;;;;;14.67;4.50;;;10.80;99.90;;;;;;5088536;28;20755;-73
2023/03/24 05:38:58;;;;;;;15.77;3.80;;;10.70;99.90;;;;;;5080624;28;20240;-73
2023/03/24 05:41:24;;;;;;;16.07;3.70;;;10.70;99.90;;;;;;5084385;28;20290;-73
2023/03/24 05:43:51;;;;;;;12.37;4.20;;;10.60;99.90;;;;;;5067093;28;20299;-73
2023/03/24 05:46:18;;;;;;;12.73;3.83;;;10.70;99.90;;;;;;5090796;28;20565;-76
2023/03/24 05:48:45;;;;;;;12.87;4.07;;;10.60;99.90;;;;;;5069631;28;20220;-73
2023/03/24 05:51:12;;;;;;;10.50;3.80;;;10.60;99.90;;;;;;5086216;28;20283;-74
2023/03/24 05:53:39;;;;;;;16.07;3.80;;;10.60;99.90;;;;;;5085474;28;20290;-74
2023/03/24 05:56:10;;;;;;;14.53;3.47;;;10.70;99.90;;;;;;5087752;28;20235;-73
2023/03/24 05:58:38;;;;;;;15.33;4.03;;;10.60;99.90;;;;;;5083636;28;20205;-73
2023/03/24 06:01:09;;;;;;;21.13;4.10;;;10.50;99.90;;;;;;5096369;28;20192;-73
2023/03/24 06:03:38;;;;;;;12.67;4.30;;;10.50;99.90;;;;;;5085139;28;20241;-75
2023/03/24 06:06:13;;;;;;;12.37;4.13;;;10.50;99.90;;;;;;5082608;28;20326;-73
2023/03/24 06:08:43;;;;;;;14.83;4.00;;;10.50;99.90;;;;;;5083163;28;20214;-74
2023/03/24 06:11:11;;;;;;;14.50;3.97;;;10.60;99.90;;;;;;5087520;28;20188;-73
2023/03/24 06:13:38;;;;;;;16.40;3.33;;;10.60;99.90;;;;;;5087861;28;20279;-75
2023/03/24 06:16:05;;;;;;;18.10;3.50;;;10.60;99.90;;;;;;5070006;28;20258;-74
2023/03/24 06:18:32;;;;;;;15.60;3.40;;;10.60;99.90;;;;;;5084127;28;20216;-75
2023/03/24 06:20:59;;;;;;;19.60;4.37;;;10.60;99.90;;;;;;5080647;28;20284;-72
2023/03/24 06:23:27;;;;;;;19.87;3.43;;;10.60;99.90;;;;;;5081656;28;20247;-73
2023/03/24 06:25:57;;;;;;;18.97;3.33;;;10.60;99.90;;;;;;5069682;28;20203;-73
2023/03/24 06:28:25;;;;;;;15.97;4.03;;;10.60;99.90;;;;;;5063947;28;20224;-74
2023/03/24 06:30:51;;;;;;;18.67;3.87;;;10.60;99.90;;;;;;5082704;28;20275;-74
2023/03/24 06:33:20;;;;;;;18.33;3.97;;;10.70;99.90;;;;;;5093832;28;20215;-73
2023/03/24 06:35:47;;;;;;;20.57;4.17;;;10.80;99.90;;;;;;5089000;28;20204;-74
2023/03/24 06:38:14;;;;;;;29.97;6.10;;;10.90;99.90;;;;;;5070707;28;20215;-74
2023/03/24 06:40:41;;;;;;;23.70;4.00;;;10.90;99.90;;;;;;5087480;28;20231;-74
2023/03/24 06:43:08;;;;;;;25.37;4.90;;;10.90;99.90;;;;;;5092941;28;20215;-74
2023/03/24 06:45:35;;;;;;;17.60;3.60;;;10.90;99.90;;;;;;5086537;28;20583;-74
2023/03/24 06:48:03;;;;;;;18.80;3.77;;;10.90;99.90;;;;;;5092724;28;20586;-74
2023/03/24 06:50:33;;;;;;;19.47;4.27;;;11.00;99.90;;;;;;5093176;28;20207;-73
2023/03/24 06:53:01;;;;;;;16.90;4.63;;;11.00;99.90;;;;;;5095272;28;20240;-74
2023/03/24 06:55:27;;;;;;;16.57;4.33;;;11.00;99.90;;;;;;5088697;28;20208;-75
2023/03/24 06:57:57;;;;;;;17.10;5.27;;;11.00;99.90;;;;;;5068633;28;20275;-73
2023/03/24 07:00:24;;;;;;;22.10;4.97;;;11.00;99.90;;;;;;5083118;28;20661;-73
2023/03/24 07:02:51;;;;;;;18.53;4.37;;;10.90;99.90;;;;;;5089641;28;20691;-74
2023/03/24 07:05:18;;;;;;;22.50;5.47;;;10.90;99.90;;;;;;5086468;28;20564;-76
2023/03/24 07:07:45;;;;;;;15.43;4.53;;;10.90;99.90;;;;;;5066898;28;20238;-73
2023/03/24 07:10:15;;;;;;;15.40;4.33;;;11.00;99.90;;;;;;5084026;28;20219;-75
2023/03/24 07:12:41;;;;;;;12.47;4.17;;;11.20;99.90;;;;;;5082384;28;20196;-75
2023/03/24 07:15:08;;;;;;;19.70;4.33;;;11.60;99.90;;;;;;5067431;28;20200;-76
2023/03/24 07:17:35;;;;;;;15.53;3.60;;;12.10;99.90;;;;;;5084663;28;20211;-75
2023/03/24 07:20:07;;;;;;;10.23;3.23;;;12.60;99.90;;;;;;5082864;28;20611;-74
2023/03/24 07:22:37;;;;;;;14.37;3.73;;;13.20;99.90;;;;;;5088377;28;20664;-74
2023/03/24 07:25:07;;;;;;;14.55;4.15;;;13.70;99.90;;;;;;5081575;28;20259;-76
2023/03/24 07:27:34;;;;;;;9.38;3.40;;;14.10;99.90;;;;;;5084712;28;20302;-75
2023/03/24 07:30:01;;;;;;;14.55;3.67;;;14.60;99.90;;;;;;5087958;28;20215;-75
2023/03/24 07:32:33;;;;;;;14.55;3.67;;;15.00;99.90;;;;;;5068046;28;20243;-73
2023/03/24 07:35:01;;;;;;;14.80;3.45;;;15.40;99.90;;;;;;5065699;28;20196;-74
2023/03/24 07:37:28;;;;;;;14.20;3.53;;;15.80;99.90;;;;;;5082022;28;20203;-75
2023/03/24 07:39:55;;;;;;;11.48;3.40;;;16.10;99.90;;;;;;5077956;28;20283;-74
2023/03/24 07:42:21;;;;;;;10.55;3.15;;;16.10;99.90;;;;;;5080301;28;20196;-74
2023/03/24 07:44:48;;;;;;;11.50;2.88;;;16.20;99.90;;;;;;5081488;28;20223;-76
2023/03/24 07:47:15;;;;;;;10.98;3.47;;;16.10;99.90;;;;;;5091883;28;20227;-73
2023/03/24 07:49:42;;;;;;;13.80;3.08;;;16.00;99.90;;;;;;5088137;28;20274;-73
2023/03/24 07:52:09;;;;;;;12.18;3.08;;;15.70;99.90;;;;;;5076171;28;20203;-74
2023/03/24 07:54:35;;;;;;;11.77;3.67;;;15.70;99.90;;;;;;5077311;28;20206;-74
2023/03/24 07:57:02;;;;;;;12.27;3.22;;;15.70;99.90;;;;;;5080427;28;20240;-74
2023/03/24 07:59:29;;;;;;;12.35;3.55;;;15.50;99.90;;;;;;5077398;28;20228;-75
2023/03/24 08:01:56;;;;;;;12.45;3.30;;;15.60;99.90;;;;;;5087083;28;20195;-73
2023/03/24 08:04:28;;;;;;;12.98;2.92;;;15.60;99.90;;;;;;5080227;28;20332;-73
2023/03/24 08:06:57;;;;;;;12.32;3.13;;;15.80;99.90;;;;;;5085768;28;20231;-74
2023/03/24 08:09:24;;;;;;;10.63;3.25;;;15.70;99.90;;;;;;5086981;28;20206;-74
2023/03/24 08:11:55;;;;;;;13.10;3.30;;;15.50;99.90;;;;;;5084122;28;20197;-73
2023/03/24 08:14:22;;;;;;;10.07;3.53;;;15.40;99.90;;;;;;5083377;28;20645;-73
2023/03/24 08:16:51;;;;;;;12.93;4.03;;;14.90;99.90;;;;;;5086021;28;20595;-73
2023/03/24 08:19:18;;;;;;;10.68;3.38;;;14.60;99.90;;;;;;5085362;28;20212;-74
2023/03/24 08:21:45;;;;;;;10.63;3.10;;;14.70;99.90;;;;;;5079624;28;20196;-75
2023/03/24 08:24:12;;;;;;;12.15;3.13;;;14.70;99.90;;;;;;5077312;28;20254;-75
2023/03/24 08:26:39;;;;;;;9.85;3.05;;;14.80;99.90;;;;;;5080891;28;20243;-73
2023/03/24 08:29:05;;;;;;;18.40;4.13;;;14.70;99.90;;;;;;5078596;28;20212;-74
2023/03/24 08:31:33;;;;;;;14.32;2.88;;;14.70;99.90;;;;;;5071629;28;20294;-73
2023/03/24 08:34:03;;;;;;;12.52;3.85;;;15.00;99.90;;;;;;5083228;28;20295;-74
2023/03/24 08:36:30;;;;;;;17.38;4.22;;;15.10;99.90;;;;;;5071098;28;20196;-73
2023/03/24 08:38:58;;;;;;;14.80;3.35;;;15.30;99.90;;;;;;5070959;28;20212;-75
2023/03/24 08:41:29;;;;;;;10.30;3.30;;;15.10;99.90;;;;;;5084539;28;20239;-73
2023/03/24 08:43:56;;;;;;;15.85;4.10;;;15.20;99.90;;;;;;5089003;28;20195;-74
2023/03/24 08:46:23;;;;;;;11.20;3.05;;;15.00;99.90;;;;;;5088591;28;20290;-73
2023/03/24 08:48:49;;;;;;;14.43;3.10;;;15.10;99.90;;;;;;5091750;28;20219;-74
2023/03/24 08:51:16;;;;;;;11.85;3.20;;;15.20;99.90;;;;;;5092603;28;20200;-73
2023/03/24 08:53:43;;;;;;;12.05;3.20;;;15.30;99.90;;;;;;5087988;28;20297;-73
2023/03/24 08:56:10;;;;;;;11.40;3.00;;;15.20;99.90;;;;;;5091996;28;20283;-75
2023/03/24 08:58:37;;;;;;;9.68;2.78;;;14.80;99.90;;;;;;5089893;28;20282;-73
2023/03/24 09:01:04;;;;;;;9.85;2.85;;;14.30;99.90;;;;;;5072199;28;20547;-72
2023/03/24 09:03:31;;;;;;;16.75;3.17;;;14.20;99.90;;;;;;5090130;28;20635;-73
2023/03/24 09:05:58;;;;;;;9.15;2.83;;;14.10;99.90;;;;;;5089024;28;20228;-73
2023/03/24 09:08:25;;;;;;;13.10;3.13;;;14.00;99.90;;;;;;5091144;28;20232;-73
2023/03/24 09:10:52;;;;;;;11.75;3.22;;;13.90;99.90;;;;;;5086470;28;20198;-73
2023/03/24 09:13:20;;;;;;;13.20;3.07;;;13.90;99.90;;;;;;5089531;28;20304;-73
2023/03/24 09:15:50;;;;;;;10.13;2.80;;;13.90;99.90;;;;;;5074400;28;20836;-73
2023/03/24 09:18:18;;;;;;;10.60;2.83;;;14.10;99.90;;;;;;5070317;28;20318;-73
2023/03/24 09:20:46;;;;;;;12.32;3.15;;;14.10;99.90;;;;;;5082978;28;20356;-72
2023/03/24 09:23:14;;;;;;;12.15;3.03;;;14.30;99.90;;;;;;5085877;28;20202;-73
2023/03/24 09:25:40;;;;;;;16.20;3.70;;;14.50;99.90;;;;;;5087548;28;20292;-72
2023/03/24 09:28:07;;;;;;;12.80;3.40;;;14.60;99.90;;;;;;5089765;28;20322;-73
2023/03/24 09:30:34;;;;;;;10.18;2.90;;;14.90;99.90;;;;;;5089574;28;20193;-72
2023/03/24 09:33:01;;;;;;;13.57;3.75;;;15.10;99.90;;;;;;5089282;28;20584;-74
2023/03/24 09:35:28;;;;;;;10.80;2.70;;;15.30;99.90;;;;;;5090671;28;20651;-74
2023/03/24 09:37:55;;;;;;;7.65;2.70;;;15.60;99.90;;;;;;5087100;28;20218;-73
2023/03/24 09:40:28;;;;;;;12.48;3.33;;;16.00;99.90;;;;;;5083348;28;20200;-73
2023/03/24 09:43:02;;;;;;;13.52;3.00;;;16.30;99.90;;;;;;5088335;28;20203;-73
2023/03/24 09:45:34;;;;;;;13.75;3.08;;;16.40;99.90;;;;;;5085027;28;20200;-73
2023/03/24 09:48:11;;;;;;;10.55;3.08;;;16.50;99.90;;;;;;5086574;28;20243;-72
2023/03/24 09:51:09;;;;;;;12.20;2.97;;;16.60;99.90;;;;;;5088645;28;20203;-74
2023/03/24 09:53:42;;;;;;;10.15;2.65;;;16.70;99.90;;;;;;5060645;28;20283;-73
2023/03/24 09:56:19;;;;;;;12.68;2.75;;;16.50;99.90;;;;;;5086431;28;20813;-73
2023/03/24 09:59:12;;;;;;;11.30;2.92;;;16.20;99.90;;;;;;5073882;28;20213;-72
2023/03/24 10:01:39;;;;;;;11.82;3.03;;;16.00;99.90;;;;;;5083655;28;20282;-73
2023/03/24 10:04:21;;;;;;;12.88;3.38;;;15.90;99.90;;;;;;5089311;28;20224;-73
2023/03/24 10:06:53;;;;;;;11.18;3.13;;;15.60;99.90;;;;;;5066054;28;20196;-72
2023/03/24 10:09:38;;;;;;;11.05;2.60;;;15.10;99.90;;;;;;5088812;28;20235;-73
2023/03/24 10:12:44;;;;;;;11.18;2.78;;;14.90;99.90;;;;;;5088449;28;20228;-74
2023/03/24 10:15:49;;;;;;;10.55;2.42;;;14.70;99.90;;;;;;5086908;28;20220;-73
2023/03/24 10:18:33;;;;;;;13.45;3.25;;;14.80;99.90;;;;;;5081004;28;20226;-72
2023/03/24 10:21:26;;;;;;;12.82;3.08;;;15.00;99.90;;;;;;5072849;28;20221;-73
2023/03/24 10:24:20;;;;;;;10.18;2.50;;;15.10;99.90;;;;;;5069000;28;20200;-73
2023/03/24 10:27:03;;;;;;;10.55;2.70;;;15.10;99.90;;;;;;5088912;28;20295;-73
2023/03/24 10:29:33;;;;;;;13.05;2.92;;;15.30;99.90;;;;;;5086416;28;20745;-73
2023/03/24 10:32:21;;;;;;;7.35;2.22;;;15.20;99.90;;;;;;5093910;28;20231;-72
2023/03/24 10:34:54;;;;;;;10.73;3.60;;;15.10;99.90;;;;;;5084411;28;20195;-73
2023/03/24 10:37:27;;;;;;;7.85;2.40;;;15.00;99.90;;;;;;5089781;28;20195;-72
2023/03/24 10:39:54;;;;;;;11.13;2.63;;;15.00;99.90;;;;;;5088704;28;20702;-73
2023/03/24 10:42:26;;;;;;;5.13;2.25;;;15.00;99.90;;;;;;5089382;28;20689;-71
2023/03/24 10:44:54;;;;;;;11.30;2.80;;;15.00;99.90;;;;;;5086243;28;20817;-72
2023/03/24 10:47:25;;;;;;;8.23;2.13;;;15.10;99.90;;;;;;5085454;28;20650;-74
2023/03/24 10:50:04;;;;;;;7.68;2.10;;;15.20;99.90;;;;;;5083010;28;20211;-74
2023/03/24 10:52:44;;;;;;;12.43;3.25;;;15.50;99.90;;;;;;5087356;28;20195;-73
2023/03/24 10:55:17;;;;;;;15.93;2.78;;;15.90;99.90;;;;;;5085848;28;20203;-73
2023/03/24 10:57:48;;;;;;;10.30;2.58;;;15.90;99.90;;;;;;5082568;28;20200;-72
2023/03/24 11:00:19;;;;;;;10.00;2.33;;;15.70;99.90;;;;;;5087057;28;20200;-73
2023/03/24 11:02:55;;;;;;;8.20;2.50;;;15.50;99.90;;;;;;5061227;28;20290;-72
2023/03/24 11:05:29;;;;;;;8.77;2.20;;;15.50;99.90;;;;;;5086487;28;20283;-76
2023/03/24 11:08:10;;;;;;;10.45;2.10;;;15.40;99.90;;;;;;5070937;28;20231;-72
2023/03/24 11:10:37;;;;;;;8.07;2.20;;;15.60;99.90;;;;;;5087320;28;20239;-74
2023/03/24 11:13:15;;;;;;;9.15;2.28;;;15.60;99.90;;;;;;5089621;28;20216;-72
2023/03/24 11:16:10;;;;;;;8.05;2.58;;;15.40;99.90;;;;;;5081285;28;20249;-73
2023/03/24 11:18:52;;;;;;;9.60;2.38;;;15.30;99.90;;;;;;5081570;28;20220;-73
2023/03/24 11:21:19;;;;;;;9.23;2.50;;;15.20;99.90;;;;;;5081760;28;20323;-72
2023/03/24 11:23:46;;;;;;;11.13;2.20;;;15.10;99.90;;;;;;5083661;28;20286;-72
2023/03/24 11:26:27;;;;;;;11.43;2.50;;;15.20;99.90;;;;;;5085680;28;20291;-76
2023/03/24 11:28:57;;;;;;;14.77;2.50;;;15.10;99.90;;;;;;5081234;28;20734;-75
2023/03/24 11:31:33;;;;;;;10.50;2.72;;;15.00;99.90;;;;;;5070309;28;20255;-72
2023/03/24 11:34:24;;;;;;;14.05;3.08;;;14.90;99.90;;;;;;5076747;28;20208;-73
2023/03/24 11:36:57;;;;;;;8.63;2.30;;;14.90;99.90;;;;;;5085301;28;20377;-73
2023/03/24 11:39:32;;;;;;;12.93;2.40;;;14.90;99.90;;;;;;5076883;28;20207;-74
2023/03/24 11:42:00;;;;;;;9.57;2.78;;;14.70;99.90;;;;;;5088192;28;20231;-73
2023/03/24 11:44:41;;;;;;;14.07;3.70;;;14.50;99.90;;;;;;5088614;28;20599;-75
2023/03/24 11:47:31;;;;;;;13.43;3.60;;;14.20;99.90;;;;;;5082492;28;20287;-75
2023/03/24 11:50:09;;;;;;;10.03;3.40;;;13.60;99.90;;;;;;5088253;28;20224;-75
2023/03/24 11:53:01;;;;;;;12.50;3.03;;;13.30;99.90;;;;;;5083197;28;20638;-76
2023/03/24 11:55:35;;;;;;;14.53;3.40;;;12.90;99.90;;;;;;5086815;28;20196;-73
2023/03/24 11:58:16;;;;;;;10.33;3.30;;;12.70;99.90;;;;;;5064279;28;20744;-74
2023/03/24 12:00:57;;;;;;;12.57;3.00;;;12.90;99.90;;;;;;5067001;28;20195;-75
2023/03/24 12:03:27;;;;;;;10.50;3.13;;;13.10;99.90;;;;;;5081624;28;20232;-74
2023/03/24 12:06:15;;;;;;;11.67;3.07;;;13.20;99.90;;;;;;5081443;28;20292;-75
2023/03/24 12:08:57;;;;;;;9.07;2.90;;;13.30;99.90;;;;;;5067447;28;20224;-77
2023/03/24 12:11:43;;;;;;;8.37;2.67;;;13.20;99.90;;;;;;5088702;28;20192;-74
2023/03/24 12:14:12;;;;;;;8.83;2.87;;;13.20;99.90;;;;;;5085553;28;20203;-75
2023/03/24 12:17:06;;;;;;;9.23;2.90;;;13.30;99.90;;;;;;5085072;28;20204;-73
2023/03/24 12:20:04;;;;;;;7.43;2.57;;;13.20;99.90;;;;;;5079373;28;20300;-73
2023/03/24 12:23:11;;;;;;;8.53;2.80;;;13.00;99.90;;;;;;5087612;28;20650;-73
2023/03/24 12:25:38;;;;;;;11.50;2.63;;;13.00;99.90;;;;;;5066711;28;20200;-73
2023/03/24 12:28:13;;;;;;;10.70;3.50;;;12.80;99.90;;;;;;5087846;28;20213;-74
2023/03/24 12:31:11;;;;;;;13.07;2.90;;;12.80;99.90;;;;;;5090876;28;20227;-73
2023/03/24 12:33:55;;;;;;;10.77;2.80;;;12.70;99.90;;;;;;5080865;28;20215;-76
2023/03/24 12:36:30;;;;;;;6.23;2.40;;;12.90;99.90;;;;;;5060418;28;20204;-73
2023/03/24 12:39:11;;;;;;;7.27;2.70;;;13.00;99.90;;;;;;5076216;28;20275;-73
2023/03/24 12:41:44;;;;;;;7.97;2.27;;;13.20;99.90;;;;;;5079096;28;20397;-73
2023/03/24 12:44:43;;;;;;;9.97;2.40;;;13.20;99.90;;;;;;5078656;28;20211;-73
2023/03/24 12:47:41;;;;;;;9.97;2.13;;;13.40;99.90;;;;;;5063524;28;20212;-72
2023/03/24 12:50:17;;;;;;;5.93;1.97;;;13.60;99.90;;;;;;5076572;28;20696;-73
2023/03/24 12:53:00;;;;;;;8.90;1.93;;;13.60;99.90;;;;;;5077201;28;20208;-74
2023/03/24 12:55:33;;;;;;;7.77;2.40;;;13.80;99.90;;;;;;5080466;28;20200;-73
2023/03/24 12:58:23;;;;;;;8.00;2.00;;;13.90;99.90;;;;;;5063143;28;20250;-73
2023/03/24 13:01:10;;;;;;;5.93;2.40;;;14.00;99.90;;;;;;5070612;28;20684;-73
2023/03/24 13:03:51;;;;;;;7.87;2.17;;;14.10;99.90;;;;;;5077942;28;20320;-73
2023/03/24 13:06:31;;;;;;;9.17;2.37;;;14.20;99.90;;;;;;5078813;28;20266;-74
2023/03/24 13:09:06;;;;;;;8.55;2.53;;;14.30;99.90;;;;;;5078366;28;20626;-75
2023/03/24 13:11:48;;;;;;;8.03;2.10;;;14.30;99.90;;;;;;5081186;28;20271;-73
2023/03/24 13:14:22;;;;;;;9.27;2.00;;;14.20;99.90;;;;;;5080349;28;20699;-73
2023/03/24 13:16:52;;;;;;;7.20;2.30;;;14.10;99.90;;;;;;5081084;28;20290;-73